Time;durP1;ratioP1;P1;durP2;ratioP2;P2;SDS_P1;SDS_P2;PMS_P1;PMS_P2;Temp;Humidity;BMP_temperature;BMP_pressure;BME280_temperature;BME280_humidity;BME280_pressure;Samples;Min_cycle;Max_cycle;Signal;HPM_P1;HPM_P2
2023/01/23 00:01:29;;;;;;;35.70;16.77;;;;;;;5.07;78.16;100845.50;4260845;33;33261;-83
2023/01/23 00:03:57;;;;;;;32.22;15.35;;;;;;;4.72;79.08;100840.00;4260822;33;33866;-80
2023/01/23 00:06:25;;;;;;;35.10;16.77;;;;;;;5.58;75.08;100842.00;4247893;33;34325;-82
2023/01/23 00:08:55;;;;;;;36.72;16.67;;;;;;;2.80;86.50;100844.47;4260632;33;33805;-81
2023/01/23 00:11:25;;;;;;;37.45;15.80;;;;;;;3.70;83.75;100835.47;4247851;33;33647;-81
2023/01/23 00:13:53;;;;;;;35.20;15.52;;;;;;;4.49;82.03;100823.53;4260409;33;33821;-81
2023/01/23 00:16:22;;;;;;;36.17;16.45;;;;;;;4.08;83.63;100828.59;4260982;33;33341;-83
2023/01/23 00:18:51;;;;;;;37.60;17.17;;;;;;;4.66;79.05;100819.84;4260148;33;34146;-81
2023/01/23 00:21:21;;;;;;;35.20;16.67;;;;;;;3.79;82.00;100825.16;4259995;33;33282;-83
2023/01/23 00:23:54;;;;;;;41.42;17.80;;;;;;;2.54;89.20;100837.84;4244751;33;33360;-81
2023/01/23 00:26:24;;;;;;;38.97;18.23;;;;;;;2.79;88.51;100837.56;4244585;33;33514;-80
2023/01/23 00:28:52;;;;;;;41.95;17.55;;;;;;;3.00;89.95;100838.62;4246093;33;34003;-82
2023/01/23 00:31:24;;;;;;;39.00;19.25;;;;;;;2.51;91.40;100842.69;4260530;33;33075;-83
2023/01/23 00:33:57;;;;;;;44.55;18.87;;;;;;;2.75;89.09;100825.25;4260183;33;33764;-80
2023/01/23 00:36:30;;;;;;;38.35;17.77;;;;;;;2.60;91.09;100826.38;4247800;33;33783;-84
2023/01/23 00:38:59;;;;;;;38.85;18.98;;;;;;;2.58;90.79;100823.69;4260543;33;34323;-83
2023/01/23 00:41:27;;;;;;;39.45;18.33;;;;;;;4.25;84.04;100829.13;4260480;33;33431;-85
2023/01/23 00:43:54;;;;;;;36.33;17.05;;;;;;;2.89;89.75;100837.63;4260118;33;33711;-81
2023/01/23 00:46:22;;;;;;;36.15;17.50;;;;;;;3.44;89.99;100821.25;4260596;33;33615;-82
2023/01/23 00:48:50;;;;;;;30.60;14.25;;;;;;;4.00;83.47;100816.78;4247760;33;33866;-82
2023/01/23 00:51:17;;;;;;;30.60;14.80;;;;;;;2.79;90.36;100828.97;4260289;33;33374;-80
2023/01/23 00:53:45;;;;;;;32.25;14.68;;;;;;;3.45;86.97;100824.72;4260290;33;33704;-80
2023/01/23 00:56:13;;;;;;;29.77;14.13;;;;;;;3.22;88.42;100833.78;4247251;33;34036;-83
2023/01/23 00:58:40;;;;;;;31.67;13.93;;;;;;;3.42;87.22;100842.34;4260668;33;34092;-83
2023/01/23 01:01:12;;;;;;;32.55;13.77;;;;;;;3.48;87.72;100837.81;4259422;33;33431;-81
2023/01/23 01:03:41;;;;;;;29.45;14.13;;;;;;;3.84;85.66;100842.69;4260376;33;34299;-82
2023/01/23 01:06:09;;;;;;;30.17;13.57;;;;;;;4.02;83.17;100828.06;4246754;33;34416;-84
2023/01/23 01:08:37;;;;;;;31.70;13.38;;;;;;;5.60;77.01;100822.44;4247677;33;34667;-83
2023/01/23 01:11:05;;;;;;;31.92;13.82;;;;;;;4.38;81.98;100837.13;4258065;33;33492;-82
2023/01/23 01:13:33;;;;;;;26.87;12.32;;;;;;;4.19;81.51;100823.47;4256013;33;34746;-82
2023/01/23 01:16:01;;;;;;;29.83;13.52;;;;;;;5.26;78.77;100821.38;4260208;33;33482;-82
2023/01/23 01:18:28;;;;;;;25.62;12.32;;;;;;;4.47;83.39;100809.69;4260298;33;33847;-84
2023/01/23 01:20:56;;;;;;;26.10;12.27;;;;;;;4.24;83.26;100817.97;4260169;33;33677;-81
2023/01/23 01:23:24;;;;;;;32.42;14.45;;;;;;;4.26;82.77;100816.44;4258453;33;33963;-84
2023/01/23 01:25:52;;;;;;;28.60;13.55;;;;;;;4.21;83.77;100806.56;4258375;33;34456;-83
2023/01/23 01:28:20;;;;;;;22.73;11.98;;;;;;;4.23;83.28;100811.06;4259233;33;33716;-84
2023/01/23 01:30:47;;;;;;;26.52;12.57;;;;;;;4.95;80.01;100803.41;4260113;33;34141;-80
2023/01/23 01:33:15;;;;;;;28.58;13.80;;;;;;;4.70;80.28;100797.91;4259839;33;33052;-83
2023/01/23 01:35:43;;;;;;;23.65;11.88;;;;;;;4.73;80.26;100801.62;4258635;33;34464;-83
2023/01/23 01:38:11;;;;;;;23.95;12.02;;;;;;;4.69;81.24;100809.84;4259871;33;34491;-81
2023/01/23 01:40:39;;;;;;;26.98;12.85;;;;;;;4.32;83.79;100810.94;4246517;33;33621;-84
2023/01/23 01:43:14;;;;;;;26.42;11.88;;;;;;;4.75;80.07;100805.97;4259792;33;33687;-81
2023/01/23 01:46:12;;;;;;;24.90;12.30;;;;;;;4.57;81.03;100807.91;4238901;33;34037;-81
2023/01/23 01:49:15;;;;;;;22.62;11.05;;;;;;;4.87;80.98;100807.91;4250786;33;34483;-84
2023/01/23 01:51:51;;;;;;;22.80;11.48;;;;;;;4.77;80.94;100807.94;4260023;33;33228;-83
2023/01/23 01:54:18;;;;;;;;;;;;;;;5.04;80.36;100813.53;4259215;33;33932;-80
2023/01/23 01:56:53;;;;;;;23.20;10.73;;;;;;;5.37;78.73;100802.59;4259777;33;33995;-82
2023/01/23 01:59:23;;;;;;;21.48;10.77;;;;;;;4.67;82.60;100805.34;4258254;33;32671;-80
2023/01/23 02:01:56;;;;;;;21.70;10.85;;;;;;;5.26;80.79;100806.84;4258222;33;33819;-82
2023/01/23 02:04:24;;;;;;;24.63;11.55;;;;;;;4.95;81.44;100797.41;4259584;33;33709;-84
2023/01/23 02:06:51;;;;;;;23.75;10.43;;;;;;;4.78;81.50;100794.31;4252227;33;33931;-81
2023/01/23 02:09:24;;;;;;;24.80;11.07;;;;;;;4.74;81.03;100792.25;4239698;33;33913;-82
2023/01/23 02:11:53;;;;;;;24.42;11.93;;;;;;;4.17;84.07;100800.25;4255608;33;31979;-81
2023/01/23 02:14:24;;;;;;;23.98;11.38;;;;;;;3.82;85.49;100789.53;4259754;33;34238;-83
2023/01/23 02:16:54;;;;;;;21.27;10.63;;;;;;;3.25;87.82;100793.09;4248532;33;34264;-82
2023/01/23 02:19:37;;;;;;;25.33;11.65;;;;;;;3.70;87.21;100800.50;4259863;33;34431;-83
2023/01/23 02:22:48;;;;;;;24.00;10.40;;;;;;;3.84;86.79;100804.25;4257452;33;32477;-80
2023/01/23 02:25:21;;;;;;;21.95;10.82;;;;;;;3.61;88.73;100804.84;4252122;33;33698;-83
2023/01/23 02:27:48;;;;;;;26.48;10.00;;;;;;;4.84;83.25;100792.25;4260525;33;34870;-83
2023/01/23 02:30:17;;;;;;;20.30;10.10;;;;;;;4.17;84.91;100789.09;4260416;33;34640;-82
2023/01/23 02:32:45;;;;;;;23.60;11.30;;;;;;;5.32;80.32;100788.47;4260196;33;34025;-81
2023/01/23 02:35:24;;;;;;;18.55;10.60;;;;;;;4.55;84.37;100791.47;4257265;33;33611;-84
2023/01/23 02:37:55;;;;;;;23.25;10.20;;;;;;;4.95;79.69;100792.25;4247295;33;34631;-82
2023/01/23 02:40:35;;;;;;;23.20;10.93;;;;;;;3.75;86.61;100803.47;4244502;33;33642;-82
2023/01/23 02:43:04;;;;;;;23.10;10.68;;;;;;;3.62;87.57;100796.37;4260982;33;33543;-83
2023/01/23 02:45:33;;;;;;;22.15;10.32;;;;;;;4.05;85.27;100797.53;4256181;33;34641;-86
2023/01/23 02:48:00;;;;;;;21.50;11.12;;;;;;;3.53;88.19;100787.84;4259983;33;33597;-85
2023/01/23 02:50:28;;;;;;;20.48;10.40;;;;;;;3.74;87.67;100792.31;4247429;33;34377;-82
2023/01/23 02:52:57;;;;;;;19.40;9.88;;;;;;;3.49;89.70;100793.47;4260409;33;34598;-81
2023/01/23 02:55:32;;;;;;;18.98;8.95;;;;;;;3.57;88.77;100776.22;4260755;33;34567;-82
2023/01/23 03:00:48;;;;;;;19.23;10.30;;;;;;;4.13;87.15;100763.22;4259928;33;33292;-83
2023/01/23 03:03:16;;;;;;;17.00;8.70;;;;;;;6.80;75.67;100756.25;4260569;33;34240;-85
2023/01/23 03:05:43;;;;;;;16.77;8.13;;;;;;;4.99;82.07;100763.50;4260703;33;34495;-85
2023/01/23 03:08:11;;;;;;;15.75;8.38;;;;;;;4.18;87.44;100760.16;4261216;33;34679;-81
2023/01/23 03:10:38;;;;;;;16.37;8.43;;;;;;;4.72;86.08;100757.88;4261049;33;34322;-83
2023/01/23 03:13:08;;;;;;;19.60;9.90;;;;;;;4.74;82.27;100751.19;4247547;33;33814;-85
2023/01/23 03:15:37;;;;;;;16.80;9.10;;;;;;;3.72;87.76;100751.94;4248335;33;33581;-82
2023/01/23 03:18:05;;;;;;;17.23;8.05;;;;;;;4.13;88.02;100763.22;4250517;33;33861;-82
2023/01/23 03:20:40;;;;;;;19.10;7.85;;;;;;;3.84;88.36;100758.13;4260805;33;34435;-84
2023/01/23 03:23:07;;;;;;;15.50;7.22;;;;;;;3.49;90.59;100761.06;4261089;33;33484;-83
2023/01/23 03:25:35;;;;;;;10.43;5.53;;;;;;;3.73;91.44;100753.75;4260478;33;33452;-85
2023/01/23 03:30:11;;;;;;;12.00;5.65;;;;;;;3.90;91.26;100752.63;4261066;33;34474;-81
2023/01/23 03:30:51;;;;;;;12.52;5.37;;;;;;;4.34;88.30;100748.72;4260675;33;33814;-84
2023/01/23 03:33:18;;;;;;;10.48;4.90;;;;;;;4.63;87.85;100746.84;4261117;33;33289;-82
2023/01/23 03:35:46;;;;;;;9.05;4.37;;;;;;;4.77;86.74;100741.19;4245597;33;33947;-83
2023/01/23 03:38:16;;;;;;;11.70;4.97;;;;;;;5.06;86.00;100745.22;4259545;33;34481;-85
2023/01/23 03:43:31;;;;;;;9.98;4.93;;;;;;;5.01;84.32;100741.41;4257097;33;33666;-85
2023/01/23 03:45:59;;;;;;;9.07;4.07;;;;;;;4.66;86.31;100736.84;4248218;33;33877;-83
2023/01/23 03:48:27;;;;;;;10.60;4.78;;;;;;;4.81;86.75;100732.97;4261038;33;33510;-85
2023/01/23 03:50:55;;;;;;;11.88;5.90;;;;;;;5.09;84.36;100727.50;4260542;33;33396;-84
2023/01/23 03:53:23;;;;;;;13.55;6.20;;;;;;;5.15;83.94;100735.72;4261026;33;33176;-82
2023/01/23 03:55:52;;;;;;;10.98;5.65;;;;;;;5.20;84.38;100739.56;4260767;33;34656;-83
2023/01/23 03:58:20;;;;;;;12.27;5.53;;;;;;;5.24;83.46;100731.31;4260581;33;33598;-84
2023/01/23 04:00:47;;;;;;;13.10;5.80;;;;;;;4.70;85.37;100739.75;4260787;33;33899;-86
2023/01/23 04:03:15;;;;;;;10.35;5.37;;;;;;;4.71;87.37;100740.66;4260156;33;34188;-86
2023/01/23 04:05:43;;;;;;;13.82;5.57;;;;;;;4.58;87.20;100733.62;4247741;33;34081;-85
2023/01/23 04:08:10;;;;;;;10.88;5.10;;;;;;;4.59;88.17;100737.97;4260551;33;33375;-84
2023/01/23 04:10:38;;;;;;;11.75;4.35;;;;;;;5.10;85.62;100747.31;4259416;33;33996;-84
2023/01/23 04:13:09;;;;;;;10.60;4.78;;;;;;;4.96;86.39;100746.16;4260030;33;32564;-84
2023/01/23 04:15:37;;;;;;;10.90;4.25;;;;;;;5.18;86.02;100741.09;4260355;33;33667;-86
2023/01/23 04:18:05;;;;;;;11.80;5.78;;;;;;;5.44;85.32;100744.88;4260820;33;34416;-84
2023/01/23 04:20:32;;;;;;;12.40;5.75;;;;;;;6.17;80.95;100744.66;4260820;33;33524;-84
2023/01/23 04:23:00;;;;;;;15.20;7.00;;;;;;;6.77;78.39;100741.47;4260371;33;34313;-85
2023/01/23 04:25:28;;;;;;;16.90;7.43;;;;;;;5.22;83.86;100740.59;4243143;33;32261;-81
2023/01/23 04:27:56;;;;;;;16.62;7.25;;;;;;;5.03;85.57;100745.00;4247479;33;34483;-81
2023/01/23 04:30:24;;;;;;;10.90;4.78;;;;;;;5.20;85.02;100748.94;4260013;33;33493;-81
2023/01/23 04:32:52;;;;;;;14.35;6.65;;;;;;;6.12;82.22;100737.38;4259691;33;34482;-83
2023/01/23 04:35:19;;;;;;;10.95;4.80;;;;;;;6.05;80.98;100752.31;4244520;33;33869;-83
2023/01/23 04:37:47;;;;;;;9.15;4.68;;;;;;;6.07;81.47;100747.31;4255689;33;33908;-82
2023/01/23 04:40:16;;;;;;;12.55;5.90;;;;;;;6.60;80.07;100737.63;4259145;33;33989;-83
2023/01/23 04:42:44;;;;;;;10.38;4.57;;;;;;;6.64;80.40;100746.50;4259019;33;34186;-83
2023/01/23 04:45:12;;;;;;;8.40;3.50;;;;;;;7.33;75.75;100745.56;4258800;33;33648;-81
2023/01/23 04:47:44;;;;;;;8.95;3.72;;;;;;;8.20;73.12;100732.81;4260207;33;34009;-81
2023/01/23 04:50:12;;;;;;;7.25;3.28;;;;;;;8.82;71.51;100737.88;4260301;33;33918;-83
2023/01/23 04:52:40;;;;;;;9.60;3.42;;;;;;;10.10;66.59;100734.03;4259994;33;32985;-85
2023/01/23 04:55:08;;;;;;;6.62;2.70;;;;;;;9.89;66.18;100738.75;4256386;33;34555;-84
2023/01/23 04:57:36;;;;;;;5.25;2.70;;;;;;;9.79;67.90;100734.72;4256824;33;33587;-81
2023/01/23 05:00:04;;;;;;;5.75;2.17;;;;;;;10.42;65.51;100736.00;4259940;33;33695;-85
2023/01/23 05:02:32;;;;;;;5.95;2.40;;;;;;;9.96;66.25;100732.25;4259045;33;33362;-80
2023/01/23 05:05:00;;;;;;;4.47;2.58;;;;;;;10.25;65.72;100739.22;4260460;33;33369;-81
2023/01/23 05:07:28;;;;;;;5.65;2.42;;;;;;;10.98;63.41;100741.87;4235353;33;32318;-83
2023/01/23 05:09:57;;;;;;;6.47;2.12;;;;;;;10.86;62.95;100735.97;4259947;33;34580;-82
2023/01/23 05:12:24;;;;;;;5.25;2.12;;;;;;;10.89;62.77;100743.91;4259793;33;34071;-82
2023/01/23 05:14:51;;;;;;;4.90;2.00;;;;;;;10.73;62.99;100743.00;4259872;33;34016;-79
2023/01/23 05:17:19;;;;;;;4.47;2.00;;;;;;;10.73;63.97;100744.72;4260234;33;34512;-79
2023/01/23 05:19:47;;;;;;;4.68;1.92;;;;;;;9.86;66.01;100748.91;4260021;33;33924;-79
2023/01/23 05:22:14;;;;;;;5.35;2.42;;;;;;;9.98;67.49;100749.66;4242288;33;33370;-81
2023/01/23 05:24:43;;;;;;;5.25;2.08;;;;;;;10.47;64.75;100745.75;4259559;33;33499;-80
2023/01/23 05:27:11;;;;;;;5.47;1.75;;;;;;;10.57;64.00;100750.69;4260145;33;33451;-83
2023/01/23 05:29:39;;;;;;;4.12;2.05;;;;;;;10.88;63.77;100744.75;4235359;33;33564;-82
2023/01/23 05:32:07;;;;;;;4.28;2.12;;;;;;;11.27;62.03;100748.72;4257352;33;34238;-82
2023/01/23 05:34:38;;;;;;;4.37;1.92;;;;;;;12.02;59.79;100748.56;4235561;33;32201;-81
2023/01/23 05:37:06;;;;;;;3.97;1.77;;;;;;;11.13;61.48;100747.94;4259995;33;34607;-82
2023/01/23 05:39:34;;;;;;;5.15;2.20;;;;;;;11.05;61.84;100749.19;4259945;33;33765;-82
2023/01/23 05:42:02;;;;;;;3.83;2.03;;;;;;;10.38;65.00;100746.97;4259347;33;34144;-81
2023/01/23 05:44:30;;;;;;;4.35;1.98;;;;;;;10.77;63.84;100744.09;4259430;33;33412;-83
2023/01/23 05:46:59;;;;;;;5.25;2.37;;;;;;;11.36;61.92;100751.84;4259360;33;33828;-82
2023/01/23 05:49:26;;;;;;;4.30;1.83;;;;;;;11.10;62.84;100744.28;4261484;33;33834;-83
2023/01/23 05:51:55;;;;;;;4.62;2.00;;;;;;;11.44;61.81;100754.88;4260879;33;33353;-81
2023/01/23 05:54:23;;;;;;;4.72;2.12;;;;;;;11.04;63.22;100757.78;4261474;33;33627;-84
2023/01/23 05:56:51;;;;;;;4.35;2.22;;;;;;;10.26;66.06;100755.66;4260834;33;34286;-80
2023/01/23 05:59:33;;;;;;;4.37;2.35;;;;;;;10.49;64.04;100754.50;4250282;33;33028;-83
2023/01/23 06:02:01;;;;;;;4.93;2.22;;;;;;;10.04;66.73;100759.50;4260231;33;33188;-82
2023/01/23 06:04:33;;;;;;;4.80;2.15;;;;;;;9.66;68.91;100770.94;4260721;33;32733;-83
2023/01/23 06:07:01;;;;;;;3.85;1.73;;;;;;;8.98;71.86;100782.06;4261198;33;34637;-82
2023/01/23 06:09:29;;;;;;;5.60;2.20;;;;;;;8.98;71.62;100781.16;4260013;33;34144;-81
2023/01/23 06:11:58;;;;;;;4.60;2.25;;;;;;;10.29;67.24;100777.44;4260235;33;33548;-80
2023/01/23 06:14:25;;;;;;;5.25;2.12;;;;;;;10.96;64.51;100770.28;4260058;33;33079;-81
2023/01/23 06:16:53;;;;;;;5.90;2.47;;;;;;;9.69;67.72;100780.59;4258300;33;34149;-81
2023/01/23 06:19:21;;;;;;;4.43;1.55;;;;;;;9.57;68.90;100781.59;4247435;33;33421;-78
2023/01/23 06:21:48;;;;;;;3.85;1.60;;;;;;;10.75;65.52;100784.56;4259814;33;33470;-81
2023/01/23 06:24:17;;;;;;;5.15;2.20;;;;;;;12.11;60.23;100777.59;4259845;33;34156;-83
2023/01/23 06:26:45;;;;;;;4.37;1.83;;;;;;;10.67;64.69;100781.53;4257710;33;33543;-79
2023/01/23 06:29:13;;;;;;;3.72;1.87;;;;;;;11.06;63.27;100788.97;4261178;33;34693;-81
2023/01/23 06:31:40;;;;;;;3.95;1.80;;;;;;;10.28;65.54;100795.50;4261325;33;32963;-80
2023/01/23 06:34:08;;;;;;;5.25;2.20;;;;;;;10.57;65.13;100800.81;4259648;33;34595;-80
2023/01/23 06:36:36;;;;;;;4.07;2.00;;;;;;;10.66;65.21;100805.63;4260281;33;33923;-82
2023/01/23 06:39:04;;;;;;;5.32;2.42;;;;;;;11.81;61.01;100803.66;4261048;33;33967;-85
2023/01/23 06:41:32;;;;;;;4.57;2.03;;;;;;;10.87;62.89;100810.31;4260462;33;34232;-82
2023/01/23 06:44:00;;;;;;;5.35;2.35;;;;;;;11.54;60.96;100811.66;4261535;33;33537;-81
2023/01/23 06:46:27;;;;;;;5.60;2.30;;;;;;;10.36;64.83;100810.75;4260859;33;33872;-81
2023/01/23 06:48:56;;;;;;;4.87;2.03;;;;;;;10.23;65.87;100819.41;4257024;33;34176;-83
2023/01/23 06:51:23;;;;;;;5.07;2.28;;;;;;;11.19;62.18;100820.00;4259514;33;33159;-81
2023/01/23 06:53:51;;;;;;;5.62;2.50;;;;;;;10.33;64.77;100820.00;4247495;33;33913;-80
2023/01/23 06:56:18;;;;;;;5.70;2.97;;;;;;;10.93;62.96;100821.06;4259366;33;34647;-86
2023/01/23 06:58:47;;;;;;;11.32;4.40;;;;;;;9.70;66.91;100813.44;4260137;33;34736;-82
2023/01/23 07:01:17;;;;;;;12.32;4.95;;;;;;;9.01;70.34;100807.22;4260694;33;33493;-82
2023/01/23 07:03:49;;;;;;;6.32;2.53;;;;;;;9.23;70.43;100831.13;4253991;33;32312;-86
2023/01/23 07:06:17;;;;;;;5.93;3.10;;;;;;;9.63;68.48;100838.88;4244415;33;34554;-82
2023/01/23 07:08:45;;;;;;;6.12;2.20;;;;;;;9.59;67.88;100839.50;4260345;33;33489;-83
2023/01/23 07:11:13;;;;;;;6.53;2.95;;;;;;;10.48;65.36;100835.62;4251593;33;227161;-81
2023/01/23 07:13:40;;;;;;;5.93;2.30;;;;;;;10.58;64.70;100835.38;4259208;33;33625;-81
2023/01/23 07:16:08;;;;;;;6.15;2.62;;;;;;;11.04;63.18;100845.03;4259241;33;34615;-81
2023/01/23 07:18:37;;;;;;;5.60;2.53;;;;;;;10.49;65.41;100847.75;4261004;33;34454;-82
2023/01/23 07:21:06;;;;;;;6.45;2.62;;;;;;;10.56;64.86;100850.81;4260559;33;33300;-80
2023/01/23 07:23:34;;;;;;;4.68;2.28;;;;;;;11.23;63.34;100853.09;4259756;33;33616;-82
2023/01/23 07:26:08;;;;;;;6.93;2.70;;;;;;;11.41;61.89;100837.69;4260666;33;34653;-84
2023/01/23 07:28:36;;;;;;;7.32;2.80;;;;;;;10.87;63.37;100841.44;4257781;33;33203;-79
2023/01/23 07:31:04;;;;;;;5.07;2.70;;;;;;;10.90;63.81;100852.00;4235949;33;31531;-83
2023/01/23 07:33:32;;;;;;;7.20;2.60;;;;;;;10.95;63.48;100850.56;4247085;33;34035;-83
2023/01/23 07:36:00;;;;;;;4.25;2.47;;;;;;;11.33;62.69;100849.34;4259042;33;34630;-80
2023/01/23 07:38:27;;;;;;;5.25;2.67;;;;;;;10.86;64.41;100847.44;4259187;33;33543;-80
2023/01/23 07:40:57;;;;;;;5.80;3.20;;;;;;;10.54;65.08;100851.53;4257579;33;34228;-86
2023/01/23 07:43:25;;;;;;;7.00;2.87;;;;;;;10.49;65.55;100855.53;4247815;33;32119;-82
2023/01/23 07:45:53;;;;;;;7.68;3.00;;;;;;;10.46;65.43;100852.75;4236391;33;32193;-81
2023/01/23 07:48:21;;;;;;;6.47;3.22;;;;;;;10.86;64.48;100855.22;4247875;33;34457;-85
2023/01/23 07:50:48;;;;;;;6.35;3.25;;;;;;;10.56;65.08;100849.94;4260641;33;33320;-82
2023/01/23 07:53:16;;;;;;;6.78;3.35;;;;;;;10.73;64.64;100848.38;4258851;33;34680;-81
2023/01/23 07:55:44;;;;;;;8.07;2.90;;;;;;;10.62;65.21;100859.00;4246416;33;32184;-82
2023/01/23 07:58:11;;;;;;;6.07;2.70;;;;;;;10.91;64.20;100846.87;4257788;33;34503;-84
2023/01/23 08:00:40;;;;;;;6.95;3.08;;;;;;;11.07;63.46;100850.37;4256300;33;33497;-81
2023/01/23 08:03:08;;;;;;;7.32;3.25;;;;;;;10.62;65.41;100863.25;4259753;33;34138;-83
2023/01/23 08:05:36;;;;;;;9.60;3.70;;;;;;;11.07;63.66;100859.09;4259566;33;33879;-81
2023/01/23 08:08:03;;;;;;;6.82;3.12;;;;;;;10.68;64.75;100850.69;4259972;33;34597;-86
2023/01/23 08:10:40;;;;;;;7.00;3.42;;;;;;;10.77;64.48;100856.41;4259970;33;33325;-85
2023/01/23 08:13:08;;;;;;;8.25;3.05;;;;;;;10.89;64.44;100858.84;4246557;33;32199;-84
2023/01/23 08:15:37;;;;;;;6.12;3.00;;;;;;;10.66;65.46;100857.44;4242567;33;34722;-81
2023/01/23 08:18:05;;;;;;;7.68;3.00;;;;;;;10.96;64.55;100853.25;4246163;33;33342;-84
2023/01/23 08:20:33;;;;;;;6.07;2.92;;;;;;;11.06;64.16;100857.28;4256919;33;33442;-82
2023/01/23 08:23:01;;;;;;;6.45;2.85;;;;;;;10.69;65.34;100864.53;4260141;33;33471;-82
2023/01/23 08:25:29;;;;;;;6.32;3.03;;;;;;;10.70;64.96;100867.22;4259796;33;33829;-81
2023/01/23 08:27:57;;;;;;;7.18;3.25;;;;;;;11.05;64.19;100857.19;4243199;33;33801;-81
2023/01/23 08:30:24;;;;;;;7.18;3.20;;;;;;;10.21;66.88;100867.59;4258454;33;33630;-84
2023/01/23 08:32:53;;;;;;;5.37;3.03;;;;;;;10.69;65.28;100868.03;4260391;33;32467;-82
2023/01/23 08:35:20;;;;;;;6.28;2.83;;;;;;;10.93;64.99;100862.53;4259928;33;33318;-79
2023/01/23 08:37:47;;;;;;;5.90;3.20;;;;;;;10.59;65.05;100855.31;4257893;33;34100;-79
2023/01/23 08:40:15;;;;;;;6.75;2.90;;;;;;;11.03;64.08;100864.91;4259171;33;33885;-83
2023/01/23 08:42:43;;;;;;;6.97;3.30;;;;;;;11.61;61.84;100872.59;4259355;33;34170;-81
2023/01/23 08:45:10;;;;;;;7.03;3.42;;;;;;;10.99;63.67;100863.81;4256614;33;33605;-83
2023/01/23 08:47:38;;;;;;;6.53;3.22;;;;;;;11.08;63.79;100863.44;4258087;33;33958;-81
2023/01/23 08:50:06;;;;;;;6.87;3.17;;;;;;;11.04;63.25;100871.84;4247070;33;37046;-81
2023/01/23 08:52:34;;;;;;;6.43;2.92;;;;;;;10.65;64.32;100878.13;4247196;33;32349;-84
2023/01/23 08:55:02;;;;;;;6.80;3.20;;;;;;;10.96;63.74;100875.69;4259213;33;34105;-85
2023/01/23 08:57:30;;;;;;;7.70;3.58;;;;;;;10.79;64.32;100882.44;4260219;33;34477;-84
2023/01/23 09:00:00;;;;;;;8.32;2.97;;;;;;;10.77;64.43;100887.50;4256350;33;34072;-84
2023/01/23 09:02:28;;;;;;;6.37;3.12;;;;;;;11.23;62.84;100885.94;4259718;33;34459;-85
2023/01/23 09:05:02;;;;;;;7.18;3.60;;;;;;;11.81;61.60;100887.59;4234034;33;34713;-84
2023/01/23 09:07:30;;;;;;;9.38;3.53;;;;;;;11.85;60.64;100883.50;4258504;33;33892;-85
2023/01/23 09:09:58;;;;;;;9.40;3.60;;;;;;;11.71;60.71;100885.28;4247029;33;34220;-84
2023/01/23 09:12:26;;;;;;;8.40;3.72;;;;;;;12.22;59.51;100885.56;4259741;33;33682;-82
2023/01/23 09:14:53;;;;;;;6.22;3.47;;;;;;;12.00;60.36;100886.09;4258148;33;34724;-86
2023/01/23 09:17:21;;;;;;;6.60;3.83;;;;;;;11.76;60.94;100876.09;4251366;33;33942;-84
2023/01/23 09:19:49;;;;;;;7.75;4.10;;;;;;;12.70;58.40;100877.78;4258480;33;33482;-84
2023/01/23 09:22:17;;;;;;;9.35;3.97;;;;;;;11.59;61.22;100892.38;4245119;33;31640;-82
2023/01/23 09:24:44;;;;;;;7.30;3.65;;;;;;;11.79;60.99;100888.34;4245343;33;34410;-82
2023/01/23 09:27:12;;;;;;;8.55;4.12;;;;;;;11.93;60.81;100895.22;4245683;33;34019;-84
2023/01/23 09:29:40;;;;;;;9.55;4.03;;;;;;;12.67;57.91;100886.31;4259635;33;35032;-84
2023/01/23 09:32:08;;;;;;;9.50;4.47;;;;;;;12.49;59.26;100885.31;4257720;33;33648;-79
2023/01/23 09:34:35;;;;;;;6.72;3.60;;;;;;;13.06;58.04;100876.22;4259260;33;33618;-82
2023/01/23 09:37:03;;;;;;;9.88;4.15;;;;;;;12.71;58.54;100871.75;4259194;33;33866;-83
2023/01/23 09:39:30;;;;;;;7.90;3.90;;;;;;;12.74;59.15;100867.63;4259047;33;32637;-81
2023/01/23 09:42:06;;;;;;;9.10;4.10;;;;;;;12.53;59.44;100874.25;4259488;33;33939;-81
2023/01/23 09:44:40;;;;;;;6.82;3.80;;;;;;;13.22;58.15;100871.81;4256428;33;34008;-85
2023/01/23 09:47:15;;;;;;;9.30;3.58;;;;;;;13.14;58.01;100868.81;4245928;33;33631;-82
2023/01/23 09:49:44;;;;;;;7.72;3.42;;;;;;;13.11;58.19;100869.53;4237060;33;33468;-85
2023/01/23 09:52:22;;;;;;;7.45;3.78;;;;;;;13.07;58.44;100875.41;4245536;33;33851;-84
2023/01/23 09:54:58;;;;;;;7.70;4.32;;;;;;;13.99;55.42;100873.06;4256183;33;34642;-83
2023/01/23 09:57:44;;;;;;;10.00;4.22;;;;;;;13.47;57.12;100869.66;4250060;33;34424;-82
2023/01/23 10:00:39;;;;;;;9.07;4.00;;;;;;;13.01;58.81;100867.28;4257742;33;32736;-82
2023/01/23 10:03:13;;;;;;;6.72;3.45;;;;;;;13.22;58.44;100867.50;4257497;33;33619;-85
2023/01/23 10:05:55;;;;;;;6.62;3.05;;;;;;;12.87;59.18;100866.56;4256971;33;33499;-86
2023/01/23 10:08:33;;;;;;;8.10;3.87;;;;;;;12.63;60.21;100868.75;4252104;33;34001;-86
2023/01/23 10:11:06;;;;;;;8.27;3.92;;;;;;;12.73;60.12;100860.66;4247120;33;33720;-82
2023/01/23 10:13:58;;;;;;;6.90;3.45;;;;;;;12.85;59.21;100859.50;4258328;33;34341;-82
2023/01/23 10:16:41;;;;;;;6.60;3.72;;;;;;;13.72;57.13;100865.69;4258782;33;34450;-85
2023/01/23 10:19:41;;;;;;;7.82;3.12;;;;;;;13.22;57.71;100871.81;4258485;33;33875;-80
2023/01/23 10:22:27;;;;;;;7.65;3.80;;;;;;;13.12;57.81;100865.25;4246084;33;33621;-85
2023/01/23 10:24:56;;;;;;;7.18;3.97;;;;;;;13.62;55.85;100863.41;4254837;33;33530;-83
2023/01/23 10:27:33;;;;;;;10.90;4.50;;;;;;;13.38;57.43;100869.19;4258919;33;33448;-81
2023/01/23 10:30:19;;;;;;;6.93;4.03;;;;;;;13.88;55.55;100878.63;4246659;33;34654;-84
2023/01/23 10:32:56;;;;;;;10.10;4.05;;;;;;;13.32;58.09;100869.78;4257711;33;32109;-85
2023/01/23 10:35:35;;;;;;;8.25;4.32;;;;;;;14.16;55.54;100864.31;4259454;33;34027;-81
2023/01/23 10:38:11;;;;;;;7.28;3.72;;;;;;;14.33;54.98;100857.28;4259441;33;33767;-85
2023/01/23 10:43:25;;;;;;;6.65;3.50;;;;;;;13.83;56.02;100868.78;4256173;33;33884;-80
2023/01/23 10:45:53;;;;;;;8.40;3.53;;;;;;;13.81;56.84;100871.34;4245510;33;33793;-80
2023/01/23 10:48:32;;;;;;;9.90;5.15;;;;;;;13.52;56.48;100863.00;4260438;33;34265;-83
2023/01/23 10:51:00;;;;;;;7.57;4.10;;;;;;;14.23;54.69;100858.56;4259532;33;33168;-81
2023/01/23 10:53:28;;;;;;;7.53;3.85;;;;;;;13.67;56.09;100861.94;4259314;33;33342;-83
2023/01/23 10:55:58;;;;;;;6.78;3.78;;;;;;;13.84;55.13;100854.97;4260369;33;33824;-84
2023/01/23 10:58:36;;;;;;;8.63;4.20;;;;;;;13.67;55.58;100856.75;4246319;33;33939;-85
2023/01/23 11:01:05;;;;;;;9.77;4.12;;;;;;;13.62;55.89;100847.81;4260023;33;34317;-78
2023/01/23 11:03:37;;;;;;;7.93;4.00;;;;;;;13.68;55.70;100848.13;4260221;33;34194;-84
2023/01/23 11:06:05;;;;;;;7.80;3.80;;;;;;;14.17;54.68;100845.25;4259849;33;33663;-81
2023/01/23 11:08:35;;;;;;;9.52;4.28;;;;;;;14.16;55.45;100843.47;4259908;33;33924;-82
2023/01/23 11:11:16;;;;;;;7.72;4.25;;;;;;;13.55;56.72;100842.28;4260127;33;34028;-84
2023/01/23 11:13:46;;;;;;;11.23;4.12;;;;;;;14.48;54.92;100836.25;4256312;33;33472;-84
2023/01/23 11:16:17;;;;;;;11.23;4.25;;;;;;;14.67;52.96;100836.28;4256226;33;35769;-84
2023/01/23 11:19:10;;;;;;;9.82;4.37;;;;;;;14.99;52.19;100835.91;4259919;33;33755;-84
2023/01/23 11:21:59;;;;;;;9.57;4.85;;;;;;;15.02;52.68;100836.06;4259102;33;33627;-83
2023/01/23 11:24:44;;;;;;;7.68;4.25;;;;;;;14.85;53.49;100837.91;4252491;33;33377;-86
2023/01/23 11:27:13;;;;;;;8.85;4.05;;;;;;;15.32;51.99;100831.25;4257245;33;33959;-87
2023/01/23 11:30:07;;;;;;;9.57;4.20;;;;;;;14.80;53.14;100824.69;4259997;33;33916;-85
2023/01/23 11:32:42;;;;;;;7.40;4.03;;;;;;;14.26;54.94;100819.63;4260540;33;33788;-86
2023/01/23 11:35:14;;;;;;;7.53;4.35;;;;;;;14.43;54.12;100807.38;4247668;33;34782;-83
2023/01/23 11:37:41;;;;;;;7.87;3.20;;;;;;;14.48;53.85;100810.16;4239380;33;33965;-85
2023/01/23 11:40:16;;;;;;;8.32;3.50;;;;;;;13.64;56.11;100814.97;4260208;33;33140;-85
2023/01/23 11:42:44;;;;;;;7.80;3.62;;;;;;;14.92;52.51;100803.47;4248023;33;33902;-82
2023/01/23 11:45:42;;;;;;;7.55;3.65;;;;;;;15.21;51.56;100801.19;4248710;33;33981;-85
2023/01/23 11:48:28;;;;;;;7.97;3.65;;;;;;;14.58;54.51;100796.75;4259289;33;33503;-83